LQSA/SJJ METAR and TAF weather

Enter ICAO airport designator
Station Type Date Time Source
LQSA METAR 2021/09/25 03:00 UTC NOAA

LQSA 250300Z VRB01KT CAVOK 07/07 Q1022


Station Type Date Time Source
LQSA Decoded METAR 2021/09/25 03:00 UTC NOAA

Sarajevo, Bosnia and Herzegovina (LQSA) 43-49N 018-20E 510M
Sep 24, 2021 - 11:00 PM EDT / 2021.09.25 0300 UTC
Wind: Variable at 1 MPH (1 KT):0
Visibility: greater than 7 mile(s):0
Temperature: 44 F (7 C)
Dew Point: 44 F (7 C)
Relative Humidity: 100%
Pressure (altimeter): 30.18 in. Hg (1022 hPa)
ob: LQSA 250300Z VRB01KT CAVOK 07/07 Q1022
cycle: 3

Station Type Date Time Source
LQSA TAF 2021/09/24 18:06 UTC NOAA

TAF TAF LQSA 241700Z 2418/2518 VRB02KT CAVOK TX27/2514Z TN02/2504Z
TEMPO 2501/2509 2000 BCFG BKN003 PROB40 2504/2508 0300 FG BKN001

Example: see airport list